createdAt,value
2022-07-29T00:01:19.306Z,52.95
2022-07-29T00:04:22.287Z,52.70
2022-07-29T00:07:24.861Z,52.93
2022-07-29T00:10:26.822Z,52.93
2022-07-29T00:13:32.402Z,53.26
2022-07-29T00:16:35.776Z,53.00
2022-07-29T00:19:37.947Z,52.86
2022-07-29T00:22:40.483Z,52.84
2022-07-29T00:25:42.511Z,52.53
2022-07-29T00:28:44.441Z,53.06
2022-07-29T00:31:46.623Z,53.03
2022-07-29T00:35:07.162Z,52.29
2022-07-29T00:38:09.179Z,52.84
2022-07-29T00:41:11.317Z,52.55
2022-07-29T00:44:13.712Z,53.09
2022-07-29T00:47:15.822Z,52.54
2022-07-29T00:50:18.692Z,52.50
2022-07-29T00:53:21.424Z,52.69
2022-07-29T00:56:24.135Z,52.84
2022-07-29T00:59:34.722Z,52.49
2022-07-29T01:02:37.471Z,53.07
2022-07-29T01:05:48.157Z,52.87
2022-07-29T01:08:53.654Z,53.70
2022-07-29T01:11:55.867Z,53.80
2022-07-29T01:14:57.874Z,52.75
2022-07-29T01:18:07.332Z,53.25
2022-07-29T01:21:31.651Z,53.08
2022-07-29T01:24:58.016Z,52.98
2022-07-29T01:28:12.448Z,52.67
2022-07-29T01:31:24.922Z,53.42
2022-07-29T01:34:36.548Z,53.12
2022-07-29T01:38:06.551Z,53.69
2022-07-29T01:41:13.685Z,53.13
2022-07-29T01:44:23.875Z,54.37
2022-07-29T01:47:32.706Z,53.83
2022-07-29T01:50:50.518Z,53.85
2022-07-29T01:54:06.098Z,53.97
2022-07-29T01:57:10.647Z,53.84
2022-07-29T02:00:13.732Z,53.99
2022-07-29T02:03:19.893Z,54.51
2022-07-29T02:06:24.360Z,53.80
2022-07-29T02:09:27.677Z,53.76
2022-07-29T02:12:32.104Z,54.76
2022-07-29T02:15:36.644Z,54.66
2022-07-29T02:18:41.985Z,53.95
2022-07-29T02:21:45.088Z,53.76
2022-07-29T02:24:48.764Z,54.21
2022-07-29T02:27:52.825Z,53.34
2022-07-29T02:30:58.577Z,53.77
2022-07-29T02:34:03.595Z,53.55
2022-07-29T02:37:06.257Z,54.29
2022-07-29T02:40:12.494Z,54.23
2022-07-29T02:43:15.234Z,55.13
2022-07-29T02:46:28.913Z,54.52
2022-07-29T02:49:42.054Z,54.35
2022-07-29T02:53:10.027Z,54.94
2022-07-29T02:56:15.940Z,54.92
2022-07-29T02:59:23.223Z,55.55
2022-07-29T03:02:28.282Z,55.06
2022-07-29T03:05:30.736Z,55.88
2022-07-29T03:08:33.730Z,55.19
2022-07-29T03:11:44.300Z,55.67
2022-07-29T03:14:53.445Z,55.42
2022-07-29T03:17:56.660Z,56.07
2022-07-29T03:20:58.937Z,55.07
2022-07-29T03:24:01.003Z,55.43
2022-07-29T03:27:04.430Z,56.16
2022-07-29T03:30:08.270Z,55.94
2022-07-29T03:33:13.610Z,55.24
2022-07-29T03:36:17.213Z,55.83
2022-07-29T03:39:26.644Z,56.20
2022-07-29T03:42:34.403Z,56.30
2022-07-29T03:45:37.439Z,56.13
2022-07-29T03:48:43.777Z,56.95
2022-07-29T03:51:46.054Z,56.99
2022-07-29T03:54:48.724Z,56.47
2022-07-29T03:57:51.773Z,56.52
2022-07-29T04:00:56.012Z,57.33
2022-07-29T04:03:58.153Z,57.71
2022-07-29T04:07:00.246Z,57.00
2022-07-29T04:10:02.458Z,56.70
2022-07-29T04:13:04.483Z,56.50
2022-07-29T04:16:06.657Z,57.03
2022-07-29T04:19:08.864Z,57.12
2022-07-29T04:22:10.911Z,56.36
2022-07-29T04:25:12.948Z,56.58
2022-07-29T04:28:14.920Z,56.92
2022-07-29T04:31:22.485Z,57.43
2022-07-29T04:34:28.131Z,57.12
2022-07-29T04:37:30.331Z,57.79
2022-07-29T04:40:34.082Z,57.37
2022-07-29T04:43:37.042Z,58.23
2022-07-29T04:46:39.291Z,57.39
2022-07-29T04:49:41.357Z,58.07
2022-07-29T04:52:43.831Z,58.29
2022-07-29T04:55:46.388Z,58.73
2022-07-29T04:58:48.660Z,58.78
2022-07-29T05:01:50.854Z,58.48
2022-07-29T05:04:53.009Z,59.44
2022-07-29T05:07:55.119Z,59.03
2022-07-29T05:10:57.252Z,58.64
2022-07-29T05:13:59.290Z,59.42
2022-07-29T05:17:01.400Z,59.00
2022-07-29T05:20:03.607Z,59.37
2022-07-29T05:23:05.668Z,59.22
2022-07-29T05:26:07.699Z,59.33
2022-07-29T05:29:42.764Z,60.35
2022-07-29T05:32:32.127Z,59.44
2022-07-29T05:35:36.028Z,60.14
2022-07-29T05:38:38.480Z,60.23
2022-07-29T05:41:41.275Z,60.58
2022-07-29T05:44:43.325Z,61.13
2022-07-29T05:47:45.380Z,60.86
2022-07-29T05:50:47.396Z,61.41
2022-07-29T05:53:49.940Z,61.90
2022-07-29T05:56:51.902Z,61.11
2022-07-29T05:59:54.016Z,61.66
2022-07-29T06:02:56.101Z,61.80
2022-07-29T06:05:58.109Z,61.48
2022-07-29T06:09:00.467Z,60.76
2022-07-29T06:12:15.472Z,61.17
2022-07-29T06:15:17.566Z,60.41
2022-07-29T06:18:21.792Z,59.98
2022-07-29T06:21:23.908Z,59.91
2022-07-29T06:24:25.893Z,60.40
2022-07-29T06:27:27.961Z,60.24
2022-07-29T06:30:30.603Z,60.19
2022-07-29T06:33:32.783Z,59.52
2022-07-29T06:36:39.621Z,59.57
2022-07-29T06:39:42.020Z,59.91
2022-07-29T06:42:44.915Z,59.05
2022-07-29T06:45:46.965Z,60.13
2022-07-29T06:48:49.744Z,59.87
2022-07-29T06:51:52.530Z,59.79
2022-07-29T06:54:56.057Z,59.76
2022-07-29T06:57:58.094Z,59.72
2022-07-29T07:01:03.222Z,59.09
2022-07-29T07:04:05.485Z,59.74
2022-07-29T07:07:07.543Z,59.13
2022-07-29T07:10:09.891Z,58.37
2022-07-29T07:13:12.253Z,58.49
2022-07-29T07:16:14.367Z,58.93
2022-07-29T07:19:16.528Z,58.77
2022-07-29T07:22:18.702Z,58.62
2022-07-29T07:25:20.892Z,58.64
2022-07-29T07:28:24.834Z,58.52
2022-07-29T07:31:27.329Z,58.27
2022-07-29T07:34:31.117Z,58.45
2022-07-29T07:37:33.225Z,58.58
2022-07-29T07:40:35.370Z,58.87
2022-07-29T07:43:37.495Z,58.01
2022-07-29T07:46:39.605Z,57.97
2022-07-29T07:49:41.738Z,58.07
2022-07-29T07:52:52.005Z,58.05
2022-07-29T07:56:09.810Z,58.13
2022-07-29T07:59:13.292Z,57.83
2022-07-29T08:02:15.496Z,57.89
2022-07-29T08:05:20.338Z,57.98
2022-07-29T08:08:22.434Z,57.21
2022-07-29T08:11:24.731Z,57.96
2022-07-29T08:14:26.836Z,57.16
2022-07-29T08:17:29.428Z,57.90
2022-07-29T08:20:34.234Z,57.39
2022-07-29T08:23:47.062Z,57.22
2022-07-29T08:26:50.769Z,56.44
2022-07-29T08:29:52.793Z,56.54
2022-07-29T08:32:55.857Z,56.26
2022-07-29T08:35:58.331Z,56.35
2022-07-29T08:39:01.094Z,56.36
2022-07-29T08:42:03.349Z,56.44
2022-07-29T08:45:06.374Z,56.18
2022-07-29T08:48:08.442Z,56.10
2022-07-29T08:51:17.894Z,56.10
2022-07-29T08:54:20.993Z,55.98
2022-07-29T08:57:24.219Z,56.84
2022-07-29T09:00:29.965Z,56.68
2022-07-29T09:03:35.636Z,56.25
2022-07-29T09:06:40.803Z,56.27
2022-07-29T09:09:43.899Z,56.06
2022-07-29T09:12:45.953Z,56.67
2022-07-29T09:15:48.244Z,56.22
2022-07-29T09:18:50.310Z,55.85
2022-07-29T09:21:59.168Z,55.93
2022-07-29T09:25:01.256Z,55.97
2022-07-29T09:28:11.351Z,55.56
2022-07-29T09:31:13.436Z,55.51
2022-07-29T09:34:18.667Z,55.94
2022-07-29T09:37:28.821Z,55.81
2022-07-29T09:40:30.807Z,55.19
2022-07-29T09:43:33.318Z,56.20
2022-07-29T09:46:35.865Z,55.88
2022-07-29T09:49:52.932Z,55.44
2022-07-29T09:52:54.965Z,55.83
2022-07-29T09:55:57.074Z,55.54
2022-07-29T09:59:17.364Z,55.43
2022-07-29T10:02:23.850Z,55.30
2022-07-29T10:05:36.556Z,55.45
2022-07-29T10:08:39.449Z,55.93
2022-07-29T10:11:49.425Z,55.59
2022-07-29T10:14:52.297Z,55.42
2022-07-29T10:17:55.969Z,55.03
2022-07-29T10:20:58.237Z,55.03
2022-07-29T10:24:01.243Z,55.95
2022-07-29T10:27:06.182Z,55.49
2022-07-29T10:30:09.077Z,55.96
2022-07-29T10:33:23.761Z,55.55
2022-07-29T10:37:07.346Z,55.35
2022-07-29T10:40:57.377Z,56.76
2022-07-29T10:44:17.112Z,56.28
2022-07-29T10:47:25.738Z,55.91
2022-07-29T10:50:27.763Z,56.13
2022-07-29T10:53:48.362Z,56.05
2022-07-29T10:56:50.430Z,56.17
2022-07-29T11:00:11.400Z,56.28
2022-07-29T11:03:52.221Z,57.16
2022-07-29T11:07:11.242Z,56.63
2022-07-29T11:10:14.057Z,56.97
2022-07-29T11:13:52.332Z,57.03
2022-07-29T11:17:06.510Z,57.49
2022-07-29T11:20:33.565Z,58.18
2022-07-29T11:23:42.793Z,58.75
2022-07-29T11:26:45.441Z,58.50
2022-07-29T11:29:53.769Z,58.73
2022-07-29T11:32:55.960Z,59.15
2022-07-29T11:36:16.808Z,58.71
2022-07-29T11:39:36.300Z,59.21
2022-07-29T11:42:44.585Z,59.21
2022-07-29T11:45:47.929Z,59.86
2022-07-29T11:48:50.252Z,59.69
2022-07-29T11:51:56.497Z,59.25
2022-07-29T11:55:09.693Z,59.70
2022-07-29T11:58:13.241Z,59.86
2022-07-29T12:01:18.673Z,59.64
2022-07-29T12:04:20.948Z,60.31
2022-07-29T12:07:33.702Z,60.21
2022-07-29T12:10:37.549Z,60.14
2022-07-29T12:13:40.873Z,60.58
2022-07-29T12:16:42.862Z,60.60
2022-07-29T12:19:46.316Z,60.80
2022-07-29T12:22:50.327Z,61.04
2022-07-29T12:25:52.507Z,61.08
2022-07-29T12:28:56.141Z,61.38
2022-07-29T12:31:59.792Z,61.06
2022-07-29T12:35:14.435Z,60.81
2022-07-29T12:38:16.855Z,60.91
2022-07-29T12:41:18.900Z,60.78
2022-07-29T12:44:20.999Z,60.30
2022-07-29T12:47:24.019Z,60.34
2022-07-29T12:50:26.685Z,59.80
2022-07-29T12:53:29.472Z,59.70
2022-07-29T12:56:46.821Z,59.89
2022-07-29T13:00:09.298Z,59.72
2022-07-29T13:03:11.349Z,59.62
2022-07-29T13:06:31.715Z,59.83
2022-07-29T13:09:49.408Z,59.71
2022-07-29T13:13:16.333Z,59.78
2022-07-29T13:16:18.439Z,60.10
2022-07-29T13:19:20.506Z,59.59
2022-07-29T13:22:24.556Z,59.48
2022-07-29T13:25:32.883Z,59.94
2022-07-29T13:28:35.338Z,59.29
2022-07-29T13:31:37.437Z,59.43
2022-07-29T13:34:39.473Z,59.33
2022-07-29T13:37:41.619Z,59.11
2022-07-29T13:40:43.993Z,59.15
2022-07-29T13:43:46.020Z,58.79
2022-07-29T13:46:52.127Z,59.26
2022-07-29T13:49:54.317Z,59.05
2022-07-29T13:52:56.453Z,59.01
2022-07-29T13:55:58.527Z,58.98
2022-07-29T13:59:01.216Z,59.04
2022-07-29T14:02:03.665Z,59.18
2022-07-29T14:05:10.936Z,58.77
2022-07-29T14:08:13.030Z,59.21
2022-07-29T14:11:15.078Z,59.15
2022-07-29T14:14:17.269Z,59.02
2022-07-29T14:17:19.280Z,58.96
2022-07-29T14:20:21.373Z,59.38
2022-07-29T14:23:23.358Z,58.63
2022-07-29T14:26:25.598Z,58.93
2022-07-29T14:29:37.312Z,58.88
2022-07-29T14:32:39.877Z,58.62
2022-07-29T14:35:41.868Z,58.93
2022-07-29T14:38:44.629Z,58.99
2022-07-29T14:41:46.684Z,59.14
2022-07-29T14:44:50.490Z,58.61
2022-07-29T14:47:55.111Z,58.65
2022-07-29T14:51:04.410Z,58.47
2022-07-29T14:54:07.001Z,57.56
2022-07-29T14:57:09.809Z,57.93
2022-07-29T15:00:12.513Z,57.85
2022-07-29T15:03:23.953Z,57.51
2022-07-29T15:06:27.075Z,57.76
2022-07-29T15:09:29.269Z,57.82
2022-07-29T15:12:32.365Z,58.33
2022-07-29T15:15:34.424Z,58.02
2022-07-29T15:18:38.750Z,58.12
2022-07-29T15:21:47.907Z,58.43
2022-07-29T15:25:01.733Z,58.46
2022-07-29T15:28:07.940Z,58.15
2022-07-29T15:31:10.331Z,57.83
2022-07-29T15:34:12.453Z,58.14
2022-07-29T15:37:14.775Z,58.00
2022-07-29T15:40:17.248Z,58.40
2022-07-29T15:43:19.380Z,58.03
2022-07-29T15:46:39.774Z,58.85
2022-07-29T15:49:46.742Z,58.32
2022-07-29T15:52:50.974Z,58.45
2022-07-29T15:55:53.049Z,58.05
2022-07-29T15:58:55.116Z,58.14
2022-07-29T16:01:57.597Z,58.12
2022-07-29T16:04:59.646Z,58.62
2022-07-29T16:08:01.667Z,58.46
2022-07-29T16:11:03.812Z,58.44
2022-07-29T16:14:05.870Z,58.09
2022-07-29T16:17:14.982Z,58.93
2022-07-29T16:20:17.371Z,58.53
2022-07-29T16:23:19.529Z,58.75
2022-07-29T16:26:21.632Z,58.94
2022-07-29T16:29:23.910Z,58.94
2022-07-29T16:32:26.238Z,58.45
2022-07-29T16:35:39.681Z,58.17
2022-07-29T16:38:47.176Z,58.45
2022-07-29T16:41:49.815Z,59.00
2022-07-29T16:44:51.807Z,58.62
2022-07-29T16:48:00.021Z,58.07
2022-07-29T16:51:02.595Z,58.02
2022-07-29T16:54:04.960Z,58.87
2022-07-29T16:57:07.219Z,59.00
2022-07-29T17:00:10.139Z,58.30
2022-07-29T17:03:12.787Z,58.49
2022-07-29T17:06:15.613Z,58.64
2022-07-29T17:09:17.744Z,59.72
2022-07-29T17:12:19.844Z,59.14
2022-07-29T17:15:21.887Z,58.79
2022-07-29T17:18:23.973Z,59.44
2022-07-29T17:21:27.365Z,59.82
2022-07-29T17:24:29.406Z,59.98
2022-07-29T17:27:32.251Z,59.38
2022-07-29T17:30:34.326Z,59.29
2022-07-29T17:33:36.568Z,59.84
2022-07-29T17:36:38.855Z,59.69
2022-07-29T17:39:42.367Z,59.91
2022-07-29T17:42:44.448Z,59.33
2022-07-29T17:45:49.362Z,59.49
2022-07-29T17:48:54.676Z,59.70
2022-07-29T17:52:00.755Z,60.32
2022-07-29T17:55:03.268Z,59.62
2022-07-29T17:58:08.529Z,60.06
2022-07-29T18:01:11.007Z,59.82
2022-07-29T18:04:13.136Z,60.10
2022-07-29T18:07:15.247Z,59.58
2022-07-29T18:10:17.324Z,60.50
2022-07-29T18:13:24.313Z,60.59
2022-07-29T18:16:26.504Z,60.94
2022-07-29T18:19:29.952Z,60.18
2022-07-29T18:22:32.053Z,60.26
2022-07-29T18:25:34.277Z,59.86
2022-07-29T18:28:36.360Z,60.78
2022-07-29T18:31:38.762Z,60.18
2022-07-29T18:34:40.820Z,60.51
2022-07-29T18:38:00.763Z,60.28
2022-07-29T18:41:04.465Z,60.28
2022-07-29T18:44:06.670Z,59.66
2022-07-29T18:47:08.702Z,60.02
2022-07-29T18:50:14.001Z,60.46
2022-07-29T18:53:16.395Z,60.33
2022-07-29T18:56:18.601Z,59.51
2022-07-29T18:59:21.550Z,60.13
2022-07-29T19:02:23.913Z,60.10
2022-07-29T19:05:26.058Z,60.33
2022-07-29T19:08:28.187Z,60.54
2022-07-29T19:11:30.280Z,59.96
2022-07-29T19:14:32.360Z,60.94
2022-07-29T19:17:34.456Z,60.27
2022-07-29T19:20:36.487Z,60.05
2022-07-29T19:24:00.017Z,60.86
2022-07-29T19:27:00.834Z,60.55
2022-07-29T19:30:06.002Z,59.75
2022-07-29T19:33:08.063Z,60.58
2022-07-29T19:36:11.036Z,59.86
2022-07-29T19:39:13.201Z,59.92
2022-07-29T19:42:15.252Z,59.84
2022-07-29T19:45:17.993Z,60.19
2022-07-29T19:48:20.049Z,60.01
2022-07-29T19:51:23.556Z,60.45
2022-07-29T19:54:26.654Z,60.88
2022-07-29T19:57:28.831Z,60.89
2022-07-29T20:00:43.615Z,60.82
2022-07-29T20:03:46.687Z,60.58
2022-07-29T20:06:49.637Z,61.04
2022-07-29T20:09:54.917Z,60.60
2022-07-29T20:12:57.004Z,60.83
2022-07-29T20:16:00.508Z,60.87
2022-07-29T20:19:02.875Z,60.40
2022-07-29T20:22:05.381Z,60.46
2022-07-29T20:25:10.054Z,59.90
2022-07-29T20:28:12.203Z,59.66
2022-07-29T20:31:16.728Z,60.50
2022-07-29T20:34:19.036Z,59.61
2022-07-29T20:37:21.177Z,60.46
2022-07-29T20:40:24.784Z,60.51
2022-07-29T20:43:27.398Z,60.56
2022-07-29T20:46:29.771Z,59.84
2022-07-29T20:49:32.160Z,60.46
2022-07-29T20:52:34.783Z,60.41
2022-07-29T20:55:36.758Z,60.59
2022-07-29T20:58:40.481Z,60.63
2022-07-29T21:01:42.550Z,60.72
2022-07-29T21:04:44.591Z,60.28
2022-07-29T21:07:46.710Z,61.00
2022-07-29T21:10:48.876Z,60.01
2022-07-29T21:13:50.916Z,60.04
2022-07-29T21:16:53.180Z,60.46
2022-07-29T21:19:55.517Z,60.25
2022-07-29T21:22:58.134Z,60.44
2022-07-29T21:26:00.345Z,60.91
2022-07-29T21:29:02.456Z,60.28
2022-07-29T21:32:04.979Z,60.87
2022-07-29T21:35:19.136Z,60.40
2022-07-29T21:38:29.535Z,60.62
2022-07-29T21:41:31.684Z,60.97
2022-07-29T21:44:35.449Z,60.80
2022-07-29T21:47:37.447Z,60.55
2022-07-29T21:50:39.823Z,60.58
2022-07-29T21:53:41.814Z,60.90
2022-07-29T21:56:43.883Z,60.83
2022-07-29T21:59:53.393Z,60.76
2022-07-29T22:02:55.519Z,60.45
2022-07-29T22:05:57.597Z,61.07
2022-07-29T22:08:59.641Z,60.36
2022-07-29T22:12:02.722Z,60.69
2022-07-29T22:15:05.187Z,60.67
2022-07-29T22:18:07.266Z,60.46
2022-07-29T22:21:09.353Z,60.90
2022-07-29T22:24:11.438Z,60.35
2022-07-29T22:27:13.902Z,60.54
2022-07-29T22:30:16.773Z,60.16
2022-07-29T22:33:18.729Z,61.00
2022-07-29T22:36:20.944Z,60.64
2022-07-29T22:39:23.123Z,60.42
2022-07-29T22:42:25.688Z,60.92
2022-07-29T22:45:27.695Z,60.68
2022-07-29T22:48:29.946Z,60.62
2022-07-29T22:51:32.539Z,61.59
2022-07-29T22:54:34.659Z,60.65
2022-07-29T22:57:36.873Z,60.70
2022-07-29T23:00:39.103Z,61.50
2022-07-29T23:03:41.267Z,60.71
2022-07-29T23:06:53.586Z,60.45
2022-07-29T23:09:55.643Z,60.80
2022-07-29T23:12:57.887Z,60.56
2022-07-29T23:16:01.266Z,60.82
2022-07-29T23:19:03.433Z,60.12
2022-07-29T23:22:05.558Z,60.63
2022-07-29T23:25:08.026Z,60.75
2022-07-29T23:28:11.641Z,61.09
2022-07-29T23:31:15.481Z,60.44
2022-07-29T23:34:17.709Z,60.96
2022-07-29T23:37:20.035Z,61.58
2022-07-29T23:40:22.149Z,60.87
2022-07-29T23:43:24.931Z,60.44
2022-07-29T23:46:27.020Z,61.61
2022-07-29T23:49:29.006Z,61.54
2022-07-29T23:52:31.179Z,61.10
2022-07-29T23:55:38.180Z,61.88
2022-07-29T23:58:41.450Z,61.20
